Bitte die für das Benutzerkonto hinterlegte E-Mail-Adresse eingeben. Der Benutzername wird dann an diese E-Mail-Adresse geschickt.

WebCam

  
Kamera Halle
Kamera Vorfeld

GPS Triangle WM Sports Class

AeroClub Göppingen-Salach e.V.
Ausrichter der Modellflug
GPS Triangle-WM 2020

 

Aufgrund der aktuellen Corona Situation ist die WM auf den 15.8.-20.8.2021 verschoben
Wetter EDDS

METAR

EDDS 150420Z VRB01KT CAVOK 16/16 Q1016 NOSIG =
EDDS 142300Z 1500/1524 20003KT CAVOK PROB30 TEMPO 1512/1516 4000 TSRA BKN040CB


TAF

EDDS 142300Z 1500/1524 20003KT CAVOK PROB30 TEMPO 1512/1516 4000 TSRA BKN040CB =


SR/SS

04:15 / 18:36 UTC
(EDSO 15-08-2020)